Calabogie, Canada
Current Conditions -  °F | °C
As of 7:00 AM on Thursday 27 Nov 2014 (Local Time) from CYOW Reporting Station
Overcast Overcast  
Wind Chill: -10°   Ceiling: 3200
Heat Index: -4°   Visibility: 15mi
Dew Point: -8°   Wind: 10mph
Humidity: 74%   Direction: 350°N
Pressure: 30.04"   Gusts: NA
Location:  45.31°N, 76.72°W
Report Text: CYOW 271200Z 35009KT 15SM OVC032 M04/M08 A3004 RMK SC8 SLP178
Loading
Personal Weather Stations






























Interactive Weather Map New forecast layout! Learn more

10-Day Weather Forecast

Advertisements
Track Severe Weather on mobile